createdAt,value
2022-11-05T00:01:44.918Z,7.72
2022-11-05T00:04:31.317Z,7.20
2022-11-05T00:07:19.620Z,4.47
2022-11-05T00:09:47.678Z,3.03
2022-11-05T00:12:33.808Z,3.00
2022-11-05T00:15:19.756Z,3.95
2022-11-05T00:17:46.942Z,5.57
2022-11-05T00:20:14.228Z,7.55
2022-11-05T00:23:00.101Z,5.03
2022-11-05T00:25:29.854Z,4.75
2022-11-05T00:28:00.847Z,9.05
2022-11-05T00:30:28.042Z,8.77
2022-11-05T00:32:55.266Z,3.50
2022-11-05T00:35:23.207Z,8.23
2022-11-05T00:37:50.835Z,4.00
2022-11-05T00:40:18.203Z,6.10
2022-11-05T00:43:04.147Z,7.25
2022-11-05T00:45:31.504Z,8.13
2022-11-05T00:48:17.542Z,5.85
2022-11-05T00:50:44.738Z,3.05
2022-11-05T00:53:12.163Z,3.88
2022-11-05T00:55:44.791Z,2.58
2022-11-05T00:58:16.192Z,3.50
2022-11-05T01:00:50.262Z,4.40
2022-11-05T01:03:18.710Z,5.18
2022-11-05T01:05:50.731Z,9.50
2022-11-05T01:08:19.472Z,5.68
2022-11-05T01:10:47.999Z,2.95
2022-11-05T01:13:17.328Z,1.77
2022-11-05T01:15:45.243Z,4.88
2022-11-05T01:18:12.650Z,2.97
2022-11-05T01:20:40.112Z,3.03
2022-11-05T01:23:12.981Z,3.75
2022-11-05T01:25:41.149Z,4.95
2022-11-05T01:28:09.562Z,5.40
2022-11-05T01:30:37.385Z,5.75
2022-11-05T01:33:04.926Z,2.30
2022-11-05T01:35:32.152Z,5.18
2022-11-05T01:37:59.463Z,3.95
2022-11-05T01:40:26.961Z,3.13
2022-11-05T01:42:54.164Z,7.93
2022-11-05T01:45:21.365Z,1.90
2022-11-05T01:47:48.537Z,2.90
2022-11-05T01:50:24.834Z,5.28
2022-11-05T01:52:54.183Z,6.03
2022-11-05T01:55:24.462Z,5.13
2022-11-05T01:57:53.170Z,6.85
2022-11-05T02:00:20.446Z,4.82
2022-11-05T02:02:47.932Z,4.30
2022-11-05T02:05:16.095Z,1.85
2022-11-05T02:07:44.955Z,2.20
2022-11-05T02:10:14.083Z,5.88
2022-11-05T02:12:43.456Z,1.50
2022-11-05T02:15:12.746Z,1.63
2022-11-05T02:17:42.756Z,2.55
2022-11-05T02:20:18.861Z,6.20
2022-11-05T02:22:46.010Z,4.15
2022-11-05T02:25:39.795Z,2.08
2022-11-05T02:28:16.136Z,3.22
2022-11-05T02:30:43.363Z,4.93
2022-11-05T02:33:14.082Z,3.88
2022-11-05T02:35:44.468Z,4.20
2022-11-05T02:38:18.904Z,7.90
2022-11-05T02:41:05.620Z,2.78
2022-11-05T02:43:35.538Z,5.38
2022-11-05T02:46:16.258Z,3.65
2022-11-05T02:48:51.517Z,3.63
2022-11-05T02:51:23.130Z,1.17
2022-11-05T02:53:50.299Z,4.90
2022-11-05T02:56:26.234Z,1.73
2022-11-05T02:58:53.459Z,3.42
2022-11-05T03:01:20.771Z,1.98
2022-11-05T03:03:49.421Z,3.20
2022-11-05T03:06:34.726Z,2.95
2022-11-05T03:09:20.915Z,3.13
2022-11-05T03:12:14.389Z,6.63
2022-11-05T03:14:58.978Z,15.25
2022-11-05T03:17:31.936Z,5.35
2022-11-05T03:20:08.657Z,5.75
2022-11-05T03:22:39.606Z,4.38
2022-11-05T03:25:11.717Z,10.07
2022-11-05T03:27:40.829Z,7.03
2022-11-05T03:30:10.068Z,7.05
2022-11-05T03:32:39.807Z,5.30
2022-11-05T03:35:11.568Z,10.23
2022-11-05T03:37:40.517Z,11.37
2022-11-05T03:40:09.264Z,9.25
2022-11-05T03:42:37.910Z,6.57
2022-11-05T03:45:15.550Z,5.75
2022-11-05T03:47:44.593Z,11.38
2022-11-05T03:50:14.803Z,6.95
2022-11-05T03:52:48.595Z,5.55
2022-11-05T03:55:16.260Z,6.85
2022-11-05T03:57:47.076Z,8.85
2022-11-05T04:00:14.498Z,2.38
2022-11-05T04:02:42.362Z,2.58
2022-11-05T04:05:09.964Z,11.32
2022-11-05T04:07:55.771Z,7.40
2022-11-05T04:10:41.690Z,3.28
2022-11-05T04:13:27.651Z,5.72
2022-11-05T04:16:14.766Z,7.10
2022-11-05T04:18:42.709Z,6.22
2022-11-05T04:21:29.246Z,8.05
2022-11-05T04:24:08.969Z,4.93
2022-11-05T04:26:40.170Z,9.57
2022-11-05T04:29:26.523Z,4.65
2022-11-05T04:31:53.771Z,7.22
2022-11-05T04:34:22.145Z,5.97
2022-11-05T04:36:53.193Z,6.10
2022-11-05T04:39:21.067Z,14.30
2022-11-05T04:41:48.776Z,4.40
2022-11-05T04:44:16.753Z,8.48
2022-11-05T04:46:44.336Z,5.80
2022-11-05T04:49:11.571Z,5.72
2022-11-05T04:51:38.769Z,12.10
2022-11-05T04:54:06.142Z,5.50
2022-11-05T04:56:33.511Z,12.90
2022-11-05T04:59:00.736Z,8.50
2022-11-05T05:01:28.140Z,8.93
2022-11-05T05:03:55.482Z,4.07
2022-11-05T05:06:22.999Z,6.63
2022-11-05T05:08:50.751Z,6.15
2022-11-05T05:11:19.126Z,8.48
2022-11-05T05:13:46.627Z,9.02
2022-11-05T05:16:24.252Z,6.50
2022-11-05T05:18:51.990Z,9.63
2022-11-05T05:21:38.799Z,5.53
2022-11-05T05:24:08.598Z,6.68
2022-11-05T05:26:36.865Z,8.35
2022-11-05T05:29:04.907Z,7.97
2022-11-05T05:31:32.279Z,15.25
2022-11-05T05:33:59.564Z,3.65
2022-11-05T05:36:26.886Z,6.65
2022-11-05T05:38:54.360Z,10.68
2022-11-05T05:41:21.718Z,4.03
2022-11-05T05:43:48.934Z,6.53
2022-11-05T05:46:17.297Z,3.33
2022-11-05T05:48:48.814Z,5.05
2022-11-05T05:51:16.101Z,2.47
2022-11-05T05:53:43.315Z,4.70
2022-11-05T05:56:11.057Z,9.05
2022-11-05T05:58:39.500Z,4.35
2022-11-05T06:01:14.257Z,3.92
2022-11-05T06:03:45.853Z,7.30
2022-11-05T06:06:14.070Z,5.57
2022-11-05T06:08:41.566Z,6.28
2022-11-05T06:11:09.268Z,6.00
2022-11-05T06:13:37.151Z,4.55
2022-11-05T06:16:05.399Z,5.93
2022-11-05T06:18:33.120Z,2.78
2022-11-05T06:21:04.077Z,5.13
2022-11-05T06:23:33.232Z,4.38
2022-11-05T06:26:01.410Z,3.28
2022-11-05T06:28:29.575Z,9.70
2022-11-05T06:30:57.487Z,7.18
2022-11-05T06:33:24.912Z,5.03
2022-11-05T06:35:52.522Z,7.78
2022-11-05T06:38:20.011Z,3.92
2022-11-05T06:40:47.198Z,5.07
2022-11-05T06:43:14.657Z,3.35
2022-11-05T06:45:42.051Z,7.53
2022-11-05T06:48:09.381Z,9.15
2022-11-05T06:50:36.575Z,9.57
2022-11-05T06:53:05.306Z,6.35
2022-11-05T06:55:32.600Z,3.05
2022-11-05T06:58:00.083Z,4.60
2022-11-05T07:00:27.601Z,8.25
2022-11-05T07:02:56.807Z,7.35
2022-11-05T07:05:24.253Z,11.25
2022-11-05T07:07:51.529Z,8.43
2022-11-05T07:10:19.656Z,1.70
2022-11-05T07:12:46.956Z,8.05
2022-11-05T07:15:14.213Z,4.43
2022-11-05T07:17:41.435Z,3.20
2022-11-05T07:20:09.245Z,4.70
2022-11-05T07:22:36.724Z,6.85
2022-11-05T07:25:04.323Z,3.17
2022-11-05T07:27:31.684Z,6.00
2022-11-05T07:29:58.955Z,3.08
2022-11-05T07:32:26.173Z,8.27
2022-11-05T07:34:53.418Z,4.90
2022-11-05T07:37:20.652Z,12.85
2022-11-05T07:39:47.846Z,5.57
2022-11-05T07:42:15.159Z,3.95
2022-11-05T07:44:42.516Z,3.42
2022-11-05T07:47:09.725Z,7.35
2022-11-05T07:49:36.922Z,10.52
2022-11-05T07:52:04.147Z,6.72
2022-11-05T07:54:31.399Z,4.65
2022-11-05T07:56:58.710Z,6.40
2022-11-05T07:59:25.905Z,8.35
2022-11-05T08:01:53.230Z,4.47
2022-11-05T08:04:20.960Z,3.25
2022-11-05T08:06:48.137Z,5.32
2022-11-05T08:09:15.344Z,4.93
2022-11-05T08:11:42.544Z,9.10
2022-11-05T08:14:09.794Z,6.32
2022-11-05T08:16:37.116Z,6.82
2022-11-05T08:19:04.717Z,7.60
2022-11-05T08:21:31.891Z,10.68
2022-11-05T08:23:59.135Z,5.88
2022-11-05T08:26:26.384Z,9.50
2022-11-05T08:28:53.616Z,7.20
2022-11-05T08:31:20.815Z,6.57
2022-11-05T08:33:48.163Z,10.93
2022-11-05T08:36:15.439Z,11.93
2022-11-05T08:38:42.667Z,4.20
2022-11-05T08:41:09.840Z,8.38
2022-11-05T08:43:37.197Z,3.88
2022-11-05T08:46:04.413Z,6.57
2022-11-05T08:48:31.606Z,6.20
2022-11-05T08:51:00.880Z,3.08
2022-11-05T08:53:28.120Z,7.53
2022-11-05T08:55:58.330Z,5.43
2022-11-05T08:58:25.820Z,8.63
2022-11-05T09:00:53.088Z,3.47
2022-11-05T09:03:20.663Z,11.02
2022-11-05T09:05:47.888Z,4.95
2022-11-05T09:08:16.682Z,8.57
2022-11-05T09:10:44.311Z,2.47
2022-11-05T09:13:18.240Z,1.95
2022-11-05T09:15:47.200Z,5.82
2022-11-05T09:18:14.728Z,6.40
2022-11-05T09:20:41.967Z,1.92
2022-11-05T09:23:09.727Z,4.47
2022-11-05T09:25:37.197Z,4.57
2022-11-05T09:28:18.424Z,5.18
2022-11-05T09:30:47.479Z,5.45
2022-11-05T09:33:15.082Z,6.15
2022-11-05T09:35:42.641Z,3.75
2022-11-05T09:38:10.069Z,9.15
2022-11-05T09:40:48.097Z,4.30
2022-11-05T09:43:27.355Z,9.52
2022-11-05T09:46:01.052Z,6.43
2022-11-05T09:48:29.951Z,3.83
2022-11-05T09:50:58.229Z,4.93
2022-11-05T09:53:25.790Z,10.27
2022-11-05T09:55:55.759Z,7.68
2022-11-05T09:58:30.125Z,8.98
2022-11-05T10:00:58.355Z,7.80
2022-11-05T10:03:27.098Z,9.63
2022-11-05T10:05:55.628Z,4.80
2022-11-05T10:08:24.239Z,5.95
2022-11-05T10:10:51.446Z,5.85
2022-11-05T10:13:35.615Z,5.20
2022-11-05T10:16:12.227Z,6.18
2022-11-05T10:18:43.619Z,6.50
2022-11-05T10:21:17.100Z,13.82
2022-11-05T10:23:45.273Z,12.93
2022-11-05T10:26:14.681Z,10.20
2022-11-05T10:28:41.957Z,8.75
2022-11-05T10:31:10.732Z,8.02
2022-11-05T10:33:50.296Z,10.43
2022-11-05T10:36:20.329Z,13.15
2022-11-05T10:38:47.636Z,1.52
2022-11-05T10:41:27.536Z,6.85
2022-11-05T10:44:18.852Z,4.68
2022-11-05T10:46:46.331Z,4.72
2022-11-05T10:49:32.087Z,3.97
2022-11-05T10:52:01.022Z,6.05
2022-11-05T10:54:32.689Z,5.18
2022-11-05T10:56:59.967Z,4.53
2022-11-05T10:59:28.276Z,7.00
2022-11-05T11:02:04.158Z,6.75
2022-11-05T11:04:37.433Z,11.85
2022-11-05T11:07:05.050Z,6.57
2022-11-05T11:09:33.650Z,7.65
2022-11-05T11:12:03.488Z,6.50
2022-11-05T11:14:31.029Z,14.18
2022-11-05T11:17:16.614Z,5.15
2022-11-05T11:19:43.787Z,11.10
2022-11-05T11:22:14.878Z,3.13
2022-11-05T11:24:47.693Z,12.45
2022-11-05T11:27:17.375Z,14.85
2022-11-05T11:29:49.320Z,5.20
2022-11-05T11:32:17.909Z,7.40
2022-11-05T11:34:47.459Z,11.45
2022-11-05T11:37:19.799Z,4.55
2022-11-05T11:39:51.854Z,10.35
2022-11-05T11:42:30.397Z,12.52
2022-11-05T11:44:59.150Z,13.30
2022-11-05T11:47:27.645Z,14.05
2022-11-05T11:49:55.797Z,9.23
2022-11-05T11:52:33.321Z,7.50
2022-11-05T11:55:12.772Z,4.20
2022-11-05T11:57:44.790Z,6.45
2022-11-05T12:00:12.594Z,7.57
2022-11-05T12:02:56.012Z,8.25
2022-11-05T12:05:35.986Z,4.93
2022-11-05T12:08:21.480Z,13.68
2022-11-05T12:10:48.625Z,19.20
2022-11-05T12:13:21.703Z,20.60
2022-11-05T12:16:18.202Z,18.58
2022-11-05T12:18:49.821Z,16.08
2022-11-05T12:21:40.680Z,16.63
2022-11-05T12:24:14.928Z,11.68
2022-11-05T12:26:51.453Z,11.10
2022-11-05T12:29:48.042Z,8.07
2022-11-05T12:32:33.854Z,4.75
2022-11-05T12:35:04.133Z,10.93
2022-11-05T12:37:34.667Z,4.60
2022-11-05T12:40:20.875Z,11.10
2022-11-05T12:42:51.254Z,9.98
2022-11-05T12:45:21.615Z,8.73
2022-11-05T12:48:12.156Z,8.13
2022-11-05T12:50:47.077Z,6.22
2022-11-05T12:53:14.515Z,11.40
2022-11-05T12:55:48.248Z,9.88
2022-11-05T12:58:23.271Z,13.48
2022-11-05T13:00:53.655Z,14.23
2022-11-05T13:03:39.604Z,13.48
2022-11-05T13:06:11.291Z,18.95
2022-11-05T13:08:47.886Z,13.20
2022-11-05T13:11:28.335Z,13.23
2022-11-05T13:13:58.773Z,19.20
2022-11-05T13:16:40.258Z,18.52
2022-11-05T13:19:07.447Z,12.18
2022-11-05T13:21:35.818Z,14.73
2022-11-05T13:24:06.716Z,18.02
2022-11-05T13:26:46.195Z,16.30
2022-11-05T13:29:16.915Z,11.75
2022-11-05T13:31:57.747Z,24.20
2022-11-05T13:34:24.935Z,11.70
2022-11-05T13:37:21.469Z,17.45
2022-11-05T13:40:02.173Z,21.88
2022-11-05T13:42:44.559Z,21.85
2022-11-05T13:45:14.588Z,20.38
2022-11-05T13:47:51.186Z,14.20
2022-11-05T13:50:36.994Z,18.48
2022-11-05T13:53:15.447Z,15.98
2022-11-05T13:55:57.682Z,17.20
2022-11-05T13:58:30.879Z,14.02
2022-11-05T14:01:17.232Z,7.50
2022-11-05T14:03:49.138Z,13.20
2022-11-05T14:06:23.304Z,20.33
2022-11-05T14:08:50.521Z,5.85
2022-11-05T14:11:23.051Z,14.90
2022-11-05T14:13:52.183Z,13.45
2022-11-05T14:16:21.153Z,8.02
2022-11-05T14:18:53.347Z,15.07
2022-11-05T14:21:26.371Z,13.38
2022-11-05T14:23:58.160Z,15.93
2022-11-05T14:26:26.513Z,14.97
2022-11-05T14:28:59.803Z,14.77
2022-11-05T14:32:02.663Z,8.73
2022-11-05T14:34:17.080Z,8.90
2022-11-05T14:36:45.640Z,6.03
2022-11-05T14:39:14.569Z,10.00
2022-11-05T14:42:00.065Z,9.40
2022-11-05T14:44:27.725Z,11.75
2022-11-05T14:46:59.523Z,7.35
2022-11-05T14:49:29.341Z,12.43
2022-11-05T14:51:58.555Z,20.02
2022-11-05T14:54:38.252Z,16.60
2022-11-05T14:57:05.524Z,9.07
2022-11-05T14:59:34.739Z,13.95
2022-11-05T15:02:03.991Z,8.98
2022-11-05T15:04:40.580Z,11.00
2022-11-05T15:07:07.733Z,14.60
2022-11-05T15:09:49.500Z,11.55
2022-11-05T15:12:35.506Z,18.77
2022-11-05T15:15:11.008Z,10.48
2022-11-05T15:17:41.047Z,11.07
2022-11-05T15:20:08.658Z,12.32
2022-11-05T15:22:41.170Z,9.13
2022-11-05T15:25:16.219Z,12.68
2022-11-05T15:27:43.404Z,12.45
2022-11-05T15:30:21.387Z,12.50
2022-11-05T15:32:48.836Z,12.13
2022-11-05T15:35:38.575Z,10.20
2022-11-05T15:38:19.185Z,8.90
2022-11-05T15:40:46.498Z,17.00
2022-11-05T15:43:21.049Z,12.45
2022-11-05T15:46:08.280Z,25.67
2022-11-05T15:48:36.465Z,15.63
2022-11-05T15:51:03.848Z,21.55
2022-11-05T15:56:27.572Z,16.92
2022-11-05T15:58:56.458Z,15.05
2022-11-05T16:01:31.243Z,13.68
2022-11-05T16:04:09.779Z,14.45
2022-11-05T16:06:39.272Z,11.75
2022-11-05T16:09:07.144Z,15.02
2022-11-05T16:11:34.354Z,6.57
2022-11-05T16:14:15.917Z,16.67
2022-11-05T16:16:43.511Z,10.90
2022-11-05T16:19:29.665Z,11.50
2022-11-05T16:21:56.878Z,9.23
2022-11-05T16:24:29.211Z,13.82
2022-11-05T16:27:02.678Z,14.95
2022-11-05T16:29:37.895Z,15.02
2022-11-05T16:32:07.351Z,15.93
2022-11-05T16:34:39.520Z,19.55
2022-11-05T16:37:07.734Z,26.23
2022-11-05T16:39:35.139Z,13.48
2022-11-05T16:42:02.350Z,13.68
2022-11-05T16:44:29.645Z,18.90
2022-11-05T16:46:56.931Z,22.40
2022-11-05T16:49:24.128Z,11.18
2022-11-05T16:51:51.470Z,15.45
2022-11-05T16:54:18.820Z,6.18
2022-11-05T16:56:47.367Z,16.52
2022-11-05T16:59:15.243Z,15.15
2022-11-05T17:01:43.186Z,17.48
2022-11-05T17:04:13.398Z,11.95
2022-11-05T17:06:40.709Z,9.77
2022-11-05T17:09:08.271Z,12.52
2022-11-05T17:11:36.766Z,18.38
2022-11-05T17:14:04.061Z,12.63
2022-11-05T17:16:32.385Z,6.43
2022-11-05T17:18:59.693Z,10.80
2022-11-05T17:21:28.736Z,10.32
2022-11-05T17:23:55.983Z,14.38
2022-11-05T17:26:23.333Z,8.70
2022-11-05T17:28:50.645Z,8.30
2022-11-05T17:31:17.918Z,10.23
2022-11-05T17:33:45.093Z,19.83
2022-11-05T17:36:13.971Z,20.30
2022-11-05T17:38:41.492Z,7.93
2022-11-05T17:41:12.996Z,16.52
2022-11-05T17:43:40.548Z,6.43
2022-11-05T17:46:09.031Z,21.60
2022-11-05T17:48:36.834Z,12.02
2022-11-05T17:51:04.522Z,24.98
2022-11-05T17:53:31.853Z,10.05
2022-11-05T17:55:59.153Z,7.45
2022-11-05T17:58:26.394Z,14.48
2022-11-05T18:00:53.640Z,16.20
2022-11-05T18:03:20.836Z,19.23
2022-11-05T18:05:48.092Z,22.70
2022-11-05T18:08:15.337Z,12.07
2022-11-05T18:10:42.857Z,17.73
2022-11-05T18:13:11.884Z,18.02
2022-11-05T18:15:41.074Z,22.80
2022-11-05T18:18:09.003Z,16.70
2022-11-05T18:20:36.470Z,22.33
2022-11-05T18:23:03.768Z,20.83
2022-11-05T18:25:31.031Z,8.95
2022-11-05T18:27:58.226Z,18.63
2022-11-05T18:30:25.431Z,15.25
2022-11-05T18:32:52.767Z,15.00
2022-11-05T18:35:20.132Z,14.65
2022-11-05T18:37:47.314Z,26.52
2022-11-05T18:40:14.510Z,14.27
2022-11-05T18:42:42.360Z,15.32
2022-11-05T18:45:10.168Z,20.60
2022-11-05T18:47:37.527Z,20.20
2022-11-05T18:50:05.947Z,30.90
2022-11-05T18:52:33.383Z,25.05
2022-11-05T18:55:00.651Z,44.28
2022-11-05T18:57:28.449Z,18.48
2022-11-05T18:59:55.676Z,15.02
2022-11-05T19:02:23.008Z,17.50
2022-11-05T19:05:22.047Z,10.85
2022-11-05T19:07:38.456Z,16.02
2022-11-05T19:10:05.946Z,11.15
2022-11-05T19:12:33.151Z,5.38
2022-11-05T19:15:02.767Z,6.95
2022-11-05T19:17:30.747Z,20.58
2022-11-05T19:19:58.432Z,17.00
2022-11-05T19:22:25.992Z,16.75
2022-11-05T19:24:53.370Z,14.43
2022-11-05T19:27:20.944Z,15.82
2022-11-05T19:29:48.286Z,15.52
2022-11-05T19:32:15.739Z,13.45
2022-11-05T19:34:43.002Z,16.92
2022-11-05T19:37:10.728Z,17.23
2022-11-05T19:39:39.053Z,10.48
2022-11-05T19:42:06.757Z,16.23
2022-11-05T19:44:34.017Z,22.27
2022-11-05T19:47:01.260Z,10.68
2022-11-05T19:49:28.523Z,15.43
2022-11-05T19:51:55.911Z,19.92
2022-11-05T19:54:23.173Z,10.57
2022-11-05T19:56:51.730Z,11.93
2022-11-05T19:59:18.974Z,20.77
2022-11-05T20:01:46.317Z,22.42
2022-11-05T20:04:13.692Z,15.25
2022-11-05T20:06:41.158Z,21.67
2022-11-05T20:09:22.961Z,19.80
2022-11-05T20:11:52.405Z,18.60
2022-11-05T20:14:19.709Z,16.48
2022-11-05T20:16:47.411Z,19.45
2022-11-05T20:19:16.449Z,17.15
2022-11-05T20:21:44.424Z,15.15
2022-11-05T20:24:12.217Z,24.48
2022-11-05T20:26:39.895Z,14.13
2022-11-05T20:29:07.080Z,18.73
2022-11-05T20:31:34.414Z,18.35
2022-11-05T20:34:01.827Z,15.18
2022-11-05T20:36:29.063Z,13.65
2022-11-05T20:39:02.691Z,9.23
2022-11-05T20:41:30.758Z,13.32
2022-11-05T20:43:57.970Z,14.30
2022-11-05T20:46:25.610Z,21.00
2022-11-05T20:48:52.900Z,9.40
2022-11-05T20:51:20.847Z,15.57
2022-11-05T20:53:48.817Z,9.30
2022-11-05T20:56:19.788Z,12.52
2022-11-05T20:58:47.395Z,12.00
2022-11-05T21:01:16.179Z,13.18
2022-11-05T21:03:44.247Z,9.77
2022-11-05T21:06:11.661Z,24.75
2022-11-05T21:08:38.942Z,13.60
2022-11-05T21:11:07.218Z,13.85
2022-11-05T21:13:34.564Z,13.48
2022-11-05T21:16:02.338Z,26.33
2022-11-05T21:18:31.178Z,14.52
2022-11-05T21:21:00.498Z,15.45
2022-11-05T21:23:28.616Z,23.67
2022-11-05T21:25:56.099Z,16.77
2022-11-05T21:28:23.299Z,10.52
2022-11-05T21:30:50.529Z,25.65
2022-11-05T21:33:19.104Z,25.95
2022-11-05T21:35:47.694Z,14.30
2022-11-05T21:38:16.149Z,18.20
2022-11-05T21:40:43.889Z,26.13
2022-11-05T21:43:11.121Z,24.95
2022-11-05T21:45:39.394Z,26.70
2022-11-05T21:48:07.022Z,20.58
2022-11-05T21:50:52.982Z,13.60
2022-11-05T21:53:39.795Z,19.48
2022-11-05T21:56:26.281Z,32.22
2022-11-05T21:59:12.426Z,23.23
2022-11-05T22:01:40.135Z,16.92
2022-11-05T22:04:07.516Z,20.15
2022-11-05T22:06:34.798Z,21.40
2022-11-05T22:09:02.025Z,21.27
2022-11-05T22:11:29.280Z,20.77
2022-11-05T22:13:56.628Z,15.90
2022-11-05T22:16:23.855Z,22.45
2022-11-05T22:18:51.222Z,28.77
2022-11-05T22:21:19.198Z,24.40
2022-11-05T22:23:46.422Z,20.65
2022-11-05T22:26:13.650Z,15.10
2022-11-05T22:28:40.825Z,20.33
2022-11-05T22:31:15.637Z,11.32
2022-11-05T22:33:43.279Z,13.93
2022-11-05T22:36:11.090Z,18.45
2022-11-05T22:38:38.301Z,14.82
2022-11-05T22:41:09.083Z,16.60
2022-11-05T22:43:36.699Z,28.70
2022-11-05T22:46:08.395Z,16.33
2022-11-05T22:48:36.348Z,21.50
2022-11-05T22:51:05.047Z,30.00
2022-11-05T22:53:32.795Z,21.80
2022-11-05T22:56:02.681Z,24.13
2022-11-05T22:58:29.943Z,20.85
2022-11-05T23:00:57.131Z,32.38
2022-11-05T23:03:27.989Z,25.58
2022-11-05T23:06:30.642Z,22.33
2022-11-05T23:09:17.231Z,22.30
2022-11-05T23:11:45.474Z,25.80
2022-11-05T23:14:14.188Z,11.85
2022-11-05T23:17:00.721Z,22.48
2022-11-05T23:19:46.796Z,21.05
2022-11-05T23:22:36.634Z,15.35
2022-11-05T23:25:04.649Z,14.05
2022-11-05T23:27:33.055Z,17.85
2022-11-05T23:30:01.268Z,13.32
2022-11-05T23:32:30.683Z,14.57
2022-11-05T23:34:58.736Z,12.50
2022-11-05T23:37:46.059Z,9.23
2022-11-05T23:40:15.479Z,11.15
2022-11-05T23:43:01.992Z,15.75
2022-11-05T23:45:47.842Z,7.60
2022-11-05T23:48:21.343Z,5.88
2022-11-05T23:50:50.978Z,20.45
2022-11-05T23:53:18.239Z,32.33
2022-11-05T23:55:45.678Z,13.15
2022-11-05T23:58:13.342Z,9.65
